sensor_id;sensor_type;location;lat;lon;timestamp;P1;durP1;ratioP1;P2;durP2;ratioP2
65130;SDS011;51709;54.912;8.316;2022-11-12T00:04:44;38.35;;;9.82;;
65130;SDS011;51709;54.912;8.316;2022-11-12T00:10:24;35.88;;;9.88;;
65130;SDS011;51709;54.912;8.316;2022-11-12T00:16:04;50.90;;;10.23;;
65130;SDS011;51709;54.912;8.316;2022-11-12T00:21:43;38.15;;;10.00;;
65130;SDS011;51709;54.912;8.316;2022-11-12T00:27:23;33.38;;;11.18;;
65130;SDS011;51709;54.912;8.316;2022-11-12T00:33:03;27.50;;;9.68;;
65130;SDS011;51709;54.912;8.316;2022-11-12T00:38:43;43.58;;;10.38;;
65130;SDS011;51709;54.912;8.316;2022-11-12T00:44:22;35.70;;;11.15;;
65130;SDS011;51709;54.912;8.316;2022-11-12T00:50:01;33.95;;;10.95;;
65130;SDS011;51709;54.912;8.316;2022-11-12T00:55:40;37.95;;;10.63;;
65130;SDS011;51709;54.912;8.316;2022-11-12T01:01:19;39.92;;;10.07;;
65130;SDS011;51709;54.912;8.316;2022-11-12T01:06:59;37.55;;;10.25;;
65130;SDS011;51709;54.912;8.316;2022-11-12T01:12:39;56.80;;;10.73;;
65130;SDS011;51709;54.912;8.316;2022-11-12T01:18:18;39.80;;;11.32;;
65130;SDS011;51709;54.912;8.316;2022-11-12T01:23:58;28.00;;;9.95;;
65130;SDS011;51709;54.912;8.316;2022-11-12T01:29:38;49.95;;;11.43;;
65130;SDS011;51709;54.912;8.316;2022-11-12T01:35:19;34.30;;;10.40;;
65130;SDS011;51709;54.912;8.316;2022-11-12T01:40:58;42.47;;;10.60;;
65130;SDS011;51709;54.912;8.316;2022-11-12T01:46:40;36.28;;;10.80;;
65130;SDS011;51709;54.912;8.316;2022-11-12T01:52:29;37.22;;;11.15;;
65130;SDS011;51709;54.912;8.316;2022-11-12T01:58:13;45.45;;;9.18;;
65130;SDS011;51709;54.912;8.316;2022-11-12T02:03:56;34.00;;;10.85;;
65130;SDS011;51709;54.912;8.316;2022-11-12T02:09:35;43.55;;;9.52;;
65130;SDS011;51709;54.912;8.316;2022-11-12T02:15:14;45.25;;;9.15;;
65130;SDS011;51709;54.912;8.316;2022-11-12T02:20:54;28.50;;;9.43;;
65130;SDS011;51709;54.912;8.316;2022-11-12T02:26:37;32.70;;;9.05;;
65130;SDS011;51709;54.912;8.316;2022-11-12T02:32:18;35.17;;;8.77;;
65130;SDS011;51709;54.912;8.316;2022-11-12T02:37:58;47.38;;;9.38;;
65130;SDS011;51709;54.912;8.316;2022-11-12T02:43:38;35.00;;;9.05;;
65130;SDS011;51709;54.912;8.316;2022-11-12T02:49:18;31.92;;;9.80;;
65130;SDS011;51709;54.912;8.316;2022-11-12T02:54:57;30.42;;;8.13;;
65130;SDS011;51709;54.912;8.316;2022-11-12T03:00:36;28.38;;;9.27;;
65130;SDS011;51709;54.912;8.316;2022-11-12T03:06:16;41.10;;;11.48;;
65130;SDS011;51709;54.912;8.316;2022-11-12T03:11:56;19.80;;;8.80;;
65130;SDS011;51709;54.912;8.316;2022-11-12T03:17:35;34.72;;;9.70;;
65130;SDS011;51709;54.912;8.316;2022-11-12T03:23:14;40.28;;;10.73;;
65130;SDS011;51709;54.912;8.316;2022-11-12T03:28:53;31.05;;;10.30;;
65130;SDS011;51709;54.912;8.316;2022-11-12T03:34:33;37.42;;;10.48;;
65130;SDS011;51709;54.912;8.316;2022-11-12T03:40:12;33.08;;;9.27;;
65130;SDS011;51709;54.912;8.316;2022-11-12T03:45:51;39.03;;;9.10;;
65130;SDS011;51709;54.912;8.316;2022-11-12T03:51:30;28.20;;;9.32;;
65130;SDS011;51709;54.912;8.316;2022-11-12T03:57:09;32.90;;;8.57;;
65130;SDS011;51709;54.912;8.316;2022-11-12T04:02:48;38.40;;;9.15;;
65130;SDS011;51709;54.912;8.316;2022-11-12T04:08:28;33.17;;;10.93;;
65130;SDS011;51709;54.912;8.316;2022-11-12T04:14:16;24.95;;;8.73;;
65130;SDS011;51709;54.912;8.316;2022-11-12T04:19:55;47.55;;;9.68;;
65130;SDS011;51709;54.912;8.316;2022-11-12T04:25:53;35.20;;;10.05;;
65130;SDS011;51709;54.912;8.316;2022-11-12T04:31:51;33.10;;;10.05;;
65130;SDS011;51709;54.912;8.316;2022-11-12T04:37:31;38.38;;;10.45;;
65130;SDS011;51709;54.912;8.316;2022-11-12T04:43:22;33.50;;;10.40;;
65130;SDS011;51709;54.912;8.316;2022-11-12T04:49:20;33.90;;;10.00;;
65130;SDS011;51709;54.912;8.316;2022-11-12T04:55:00;26.48;;;9.85;;
65130;SDS011;51709;54.912;8.316;2022-11-12T05:00:39;30.58;;;9.23;;
65130;SDS011;51709;54.912;8.316;2022-11-12T05:06:18;32.15;;;9.32;;
65130;SDS011;51709;54.912;8.316;2022-11-12T05:12:16;42.67;;;10.02;;
65130;SDS011;51709;54.912;8.316;2022-11-12T05:17:55;25.75;;;8.10;;
65130;SDS011;51709;54.912;8.316;2022-11-12T05:23:34;27.50;;;8.85;;
65130;SDS011;51709;54.912;8.316;2022-11-12T05:29:13;26.45;;;8.85;;
65130;SDS011;51709;54.912;8.316;2022-11-12T05:34:53;37.42;;;8.48;;
65130;SDS011;51709;54.912;8.316;2022-11-12T05:40:32;30.63;;;9.43;;
65130;SDS011;51709;54.912;8.316;2022-11-12T05:46:11;36.35;;;7.72;;
65130;SDS011;51709;54.912;8.316;2022-11-12T05:51:51;20.77;;;7.85;;
65130;SDS011;51709;54.912;8.316;2022-11-12T05:57:30;30.55;;;7.90;;
65130;SDS011;51709;54.912;8.316;2022-11-12T06:03:10;32.70;;;8.18;;
65130;SDS011;51709;54.912;8.316;2022-11-12T06:08:50;21.73;;;7.55;;
65130;SDS011;51709;54.912;8.316;2022-11-12T06:14:29;33.75;;;8.57;;
65130;SDS011;51709;54.912;8.316;2022-11-12T06:20:09;22.77;;;7.22;;
65130;SDS011;51709;54.912;8.316;2022-11-12T06:25:49;27.42;;;8.45;;
65130;SDS011;51709;54.912;8.316;2022-11-12T06:31:28;26.60;;;9.27;;
65130;SDS011;51709;54.912;8.316;2022-11-12T06:37:07;33.58;;;11.52;;
65130;SDS011;51709;54.912;8.316;2022-11-12T06:42:47;36.15;;;11.85;;
65130;SDS011;51709;54.912;8.316;2022-11-12T06:48:26;36.53;;;10.93;;
65130;SDS011;51709;54.912;8.316;2022-11-12T06:54:07;38.53;;;12.27;;
65130;SDS011;51709;54.912;8.316;2022-11-12T06:59:46;31.02;;;10.40;;
65130;SDS011;51709;54.912;8.316;2022-11-12T07:05:25;23.35;;;10.25;;
65130;SDS011;51709;54.912;8.316;2022-11-12T07:11:04;25.00;;;10.88;;
65130;SDS011;51709;54.912;8.316;2022-11-12T07:16:44;22.05;;;8.32;;
65130;SDS011;51709;54.912;8.316;2022-11-12T07:22:23;17.40;;;8.85;;
65130;SDS011;51709;54.912;8.316;2022-11-12T07:28:02;39.15;;;9.40;;
65130;SDS011;51709;54.912;8.316;2022-11-12T07:33:42;15.45;;;8.15;;
65130;SDS011;51709;54.912;8.316;2022-11-12T07:39:22;29.13;;;9.50;;
65130;SDS011;51709;54.912;8.316;2022-11-12T07:45:01;27.20;;;9.88;;
65130;SDS011;51709;54.912;8.316;2022-11-12T07:50:41;33.83;;;10.32;;
65130;SDS011;51709;54.912;8.316;2022-11-12T07:56:21;19.90;;;10.55;;
65130;SDS011;51709;54.912;8.316;2022-11-12T08:02:02;33.92;;;11.23;;
65130;SDS011;51709;54.912;8.316;2022-11-12T08:07:41;17.73;;;9.07;;
65130;SDS011;51709;54.912;8.316;2022-11-12T08:13:20;26.08;;;9.60;;
65130;SDS011;51709;54.912;8.316;2022-11-12T08:19:00;27.90;;;9.80;;
65130;SDS011;51709;54.912;8.316;2022-11-12T08:24:39;29.65;;;9.75;;
65130;SDS011;51709;54.912;8.316;2022-11-12T08:30:18;25.33;;;9.85;;
65130;SDS011;51709;54.912;8.316;2022-11-12T08:35:57;29.33;;;9.35;;
65130;SDS011;51709;54.912;8.316;2022-11-12T08:41:39;21.92;;;9.57;;
65130;SDS011;51709;54.912;8.316;2022-11-12T08:47:18;25.63;;;9.35;;
65130;SDS011;51709;54.912;8.316;2022-11-12T08:53:01;26.65;;;9.02;;
65130;SDS011;51709;54.912;8.316;2022-11-12T08:58:42;22.30;;;8.33;;
65130;SDS011;51709;54.912;8.316;2022-11-12T09:04:21;23.63;;;9.50;;
65130;SDS011;51709;54.912;8.316;2022-11-12T09:10:01;28.75;;;8.27;;
65130;SDS011;51709;54.912;8.316;2022-11-12T09:15:41;28.33;;;9.05;;
65130;SDS011;51709;54.912;8.316;2022-11-12T09:21:20;33.88;;;9.98;;
65130;SDS011;51709;54.912;8.316;2022-11-12T09:27:02;19.73;;;8.77;;
65130;SDS011;51709;54.912;8.316;2022-11-12T09:32:42;23.85;;;8.63;;
65130;SDS011;51709;54.912;8.316;2022-11-12T09:38:21;32.20;;;9.05;;
65130;SDS011;51709;54.912;8.316;2022-11-12T09:44:01;25.13;;;8.02;;
65130;SDS011;51709;54.912;8.316;2022-11-12T09:55:42;23.00;;;7.85;;
65130;SDS011;51709;54.912;8.316;2022-11-12T10:01:37;25.48;;;8.13;;
65130;SDS011;51709;54.912;8.316;2022-11-12T10:13:23;20.70;;;7.45;;
65130;SDS011;51709;54.912;8.316;2022-11-12T10:19:28;21.50;;;9.00;;
65130;SDS011;51709;54.912;8.316;2022-11-12T10:25:16;20.35;;;8.93;;
65130;SDS011;51709;54.912;8.316;2022-11-12T10:30:59;30.52;;;11.90;;
65130;SDS011;51709;54.912;8.316;2022-11-12T10:36:52;36.22;;;12.98;;
65130;SDS011;51709;54.912;8.316;2022-11-12T10:42:34;35.53;;;11.52;;
65130;SDS011;51709;54.912;8.316;2022-11-12T10:48:37;29.45;;;12.30;;
65130;SDS011;51709;54.912;8.316;2022-11-12T10:54:21;40.38;;;15.43;;
65130;SDS011;51709;54.912;8.316;2022-11-12T11:12:00;36.38;;;15.88;;
65130;SDS011;51709;54.912;8.316;2022-11-12T11:17:38;34.42;;;14.63;;
65130;SDS011;51709;54.912;8.316;2022-11-12T11:23:22;36.83;;;14.52;;
65130;SDS011;51709;54.912;8.316;2022-11-12T11:29:17;42.53;;;15.15;;
65130;SDS011;51709;54.912;8.316;2022-11-12T11:41:17;38.65;;;16.02;;
65130;SDS011;51709;54.912;8.316;2022-11-12T11:59:07;42.63;;;15.10;;
65130;SDS011;51709;54.912;8.316;2022-11-12T12:11:14;28.45;;;15.20;;
65130;SDS011;51709;54.912;8.316;2022-11-12T12:17:14;31.63;;;13.82;;
65130;SDS011;51709;54.912;8.316;2022-11-12T12:23:12;38.53;;;12.70;;
65130;SDS011;51709;54.912;8.316;2022-11-12T12:29:19;25.83;;;13.10;;
65130;SDS011;51709;54.912;8.316;2022-11-12T12:35:22;27.85;;;12.85;;
65130;SDS011;51709;54.912;8.316;2022-11-12T12:41:24;23.95;;;14.02;;
65130;SDS011;51709;54.912;8.316;2022-11-12T12:47:08;32.05;;;10.75;;
65130;SDS011;51709;54.912;8.316;2022-11-12T12:53:04;25.05;;;12.70;;
65130;SDS011;51709;54.912;8.316;2022-11-12T12:58:54;36.10;;;13.50;;
65130;SDS011;51709;54.912;8.316;2022-11-12T13:28:18;22.70;;;12.13;;
65130;SDS011;51709;54.912;8.316;2022-11-12T13:34:06;30.67;;;14.63;;
65130;SDS011;51709;54.912;8.316;2022-11-12T13:39:51;30.10;;;13.60;;
65130;SDS011;51709;54.912;8.316;2022-11-12T13:45:30;37.88;;;14.55;;
65130;SDS011;51709;54.912;8.316;2022-11-12T13:51:19;30.25;;;14.45;;
65130;SDS011;51709;54.912;8.316;2022-11-12T14:03:03;27.55;;;12.93;;
65130;SDS011;51709;54.912;8.316;2022-11-12T14:15:13;27.50;;;11.93;;
65130;SDS011;51709;54.912;8.316;2022-11-12T14:21:05;19.05;;;10.82;;
65130;SDS011;51709;54.912;8.316;2022-11-12T14:26:49;25.55;;;12.27;;
65130;SDS011;51709;54.912;8.316;2022-11-12T14:32:34;24.95;;;13.15;;
65130;SDS011;51709;54.912;8.316;2022-11-12T14:44:27;34.80;;;13.80;;
65130;SDS011;51709;54.912;8.316;2022-11-12T14:50:13;32.08;;;14.63;;
65130;SDS011;51709;54.912;8.316;2022-11-12T14:55:58;26.65;;;14.52;;
65130;SDS011;51709;54.912;8.316;2022-11-12T15:08:03;36.22;;;15.30;;
65130;SDS011;51709;54.912;8.316;2022-11-12T15:13:46;24.50;;;11.77;;
65130;SDS011;51709;54.912;8.316;2022-11-12T15:19:27;25.35;;;12.45;;
65130;SDS011;51709;54.912;8.316;2022-11-12T15:31:00;31.30;;;14.73;;
65130;SDS011;51709;54.912;8.316;2022-11-12T15:36:43;32.15;;;15.57;;
65130;SDS011;51709;54.912;8.316;2022-11-12T15:42:29;31.80;;;15.88;;
65130;SDS011;51709;54.912;8.316;2022-11-12T15:48:11;33.42;;;14.80;;
65130;SDS011;51709;54.912;8.316;2022-11-12T15:53:51;22.05;;;13.45;;
65130;SDS011;51709;54.912;8.316;2022-11-12T15:59:30;36.00;;;16.27;;
65130;SDS011;51709;54.912;8.316;2022-11-12T16:05:16;39.33;;;19.25;;
65130;SDS011;51709;54.912;8.316;2022-11-12T16:10:56;28.73;;;17.50;;
65130;SDS011;51709;54.912;8.316;2022-11-12T16:16:35;34.13;;;16.10;;
65130;SDS011;51709;54.912;8.316;2022-11-12T16:22:17;27.77;;;17.63;;
65130;SDS011;51709;54.912;8.316;2022-11-12T16:27:57;25.98;;;13.48;;
65130;SDS011;51709;54.912;8.316;2022-11-12T16:33:38;22.20;;;13.02;;
65130;SDS011;51709;54.912;8.316;2022-11-12T16:39:17;26.52;;;14.95;;
65130;SDS011;51709;54.912;8.316;2022-11-12T16:44:57;22.75;;;15.25;;
65130;SDS011;51709;54.912;8.316;2022-11-12T16:50:36;17.48;;;11.10;;
65130;SDS011;51709;54.912;8.316;2022-11-12T16:56:19;19.42;;;12.38;;
65130;SDS011;51709;54.912;8.316;2022-11-12T17:01:59;24.35;;;12.68;;
65130;SDS011;51709;54.912;8.316;2022-11-12T17:07:39;21.65;;;11.23;;
65130;SDS011;51709;54.912;8.316;2022-11-12T17:13:18;23.08;;;12.20;;
65130;SDS011;51709;54.912;8.316;2022-11-12T17:18:58;21.33;;;12.63;;
65130;SDS011;51709;54.912;8.316;2022-11-12T17:24:39;21.45;;;12.85;;
65130;SDS011;51709;54.912;8.316;2022-11-12T17:30:19;25.85;;;14.88;;
65130;SDS011;51709;54.912;8.316;2022-11-12T17:35:59;35.70;;;17.38;;
65130;SDS011;51709;54.912;8.316;2022-11-12T17:41:43;40.58;;;16.55;;
65130;SDS011;51709;54.912;8.316;2022-11-12T17:47:22;25.65;;;15.70;;
65130;SDS011;51709;54.912;8.316;2022-11-12T17:53:02;31.05;;;17.17;;
65130;SDS011;51709;54.912;8.316;2022-11-12T17:58:41;39.53;;;19.90;;
65130;SDS011;51709;54.912;8.316;2022-11-12T18:04:23;44.13;;;18.10;;
65130;SDS011;51709;54.912;8.316;2022-11-12T18:10:06;44.55;;;19.75;;
65130;SDS011;51709;54.912;8.316;2022-11-12T18:15:46;42.75;;;19.70;;
65130;SDS011;51709;54.912;8.316;2022-11-12T18:21:25;42.05;;;18.38;;
65130;SDS011;51709;54.912;8.316;2022-11-12T18:27:05;40.45;;;19.35;;
65130;SDS011;51709;54.912;8.316;2022-11-12T18:32:45;53.58;;;19.40;;
65130;SDS011;51709;54.912;8.316;2022-11-12T18:38:24;44.97;;;21.20;;
65130;SDS011;51709;54.912;8.316;2022-11-12T18:44:04;37.72;;;20.35;;
65130;SDS011;51709;54.912;8.316;2022-11-12T18:49:43;45.00;;;20.05;;
65130;SDS011;51709;54.912;8.316;2022-11-12T18:55:22;49.03;;;21.70;;
65130;SDS011;51709;54.912;8.316;2022-11-12T19:01:06;42.38;;;20.02;;
65130;SDS011;51709;54.912;8.316;2022-11-12T19:06:49;39.60;;;20.70;;
65130;SDS011;51709;54.912;8.316;2022-11-12T19:12:29;37.30;;;18.63;;
65130;SDS011;51709;54.912;8.316;2022-11-12T19:18:09;41.85;;;19.58;;
65130;SDS011;51709;54.912;8.316;2022-11-12T19:23:48;44.85;;;20.85;;
65130;SDS011;51709;54.912;8.316;2022-11-12T19:29:32;45.20;;;20.60;;
65130;SDS011;51709;54.912;8.316;2022-11-12T19:35:12;48.53;;;22.05;;
65130;SDS011;51709;54.912;8.316;2022-11-12T19:40:51;45.15;;;19.90;;
65130;SDS011;51709;54.912;8.316;2022-11-12T19:46:30;47.42;;;23.45;;
65130;SDS011;51709;54.912;8.316;2022-11-12T19:52:10;56.33;;;23.70;;
65130;SDS011;51709;54.912;8.316;2022-11-12T19:57:49;46.88;;;21.77;;
65130;SDS011;51709;54.912;8.316;2022-11-12T20:03:29;49.72;;;23.67;;
65130;SDS011;51709;54.912;8.316;2022-11-12T20:09:09;56.95;;;27.52;;
65130;SDS011;51709;54.912;8.316;2022-11-12T20:14:48;46.95;;;21.95;;
65130;SDS011;51709;54.912;8.316;2022-11-12T20:20:27;43.72;;;22.05;;
65130;SDS011;51709;54.912;8.316;2022-11-12T20:26:08;45.65;;;22.55;;
65130;SDS011;51709;54.912;8.316;2022-11-12T20:31:50;45.90;;;22.48;;
65130;SDS011;51709;54.912;8.316;2022-11-12T20:37:29;38.67;;;19.85;;
65130;SDS011;51709;54.912;8.316;2022-11-12T20:43:08;48.63;;;23.90;;
65130;SDS011;51709;54.912;8.316;2022-11-12T20:48:47;48.42;;;22.42;;
65130;SDS011;51709;54.912;8.316;2022-11-12T20:54:27;38.42;;;20.10;;
65130;SDS011;51709;54.912;8.316;2022-11-12T21:00:07;39.72;;;20.35;;
65130;SDS011;51709;54.912;8.316;2022-11-12T21:05:56;39.05;;;20.08;;
65130;SDS011;51709;54.912;8.316;2022-11-12T21:11:39;38.60;;;20.98;;
65130;SDS011;51709;54.912;8.316;2022-11-12T21:17:19;39.88;;;20.95;;
65130;SDS011;51709;54.912;8.316;2022-11-12T21:22:58;44.50;;;24.15;;
65130;SDS011;51709;54.912;8.316;2022-11-12T21:28:37;39.80;;;22.52;;
65130;SDS011;51709;54.912;8.316;2022-11-12T21:34:19;45.92;;;21.10;;
65130;SDS011;51709;54.912;8.316;2022-11-12T21:39:58;41.35;;;21.98;;
65130;SDS011;51709;54.912;8.316;2022-11-12T21:45:42;40.65;;;21.40;;
65130;SDS011;51709;54.912;8.316;2022-11-12T21:51:24;40.88;;;21.25;;
65130;SDS011;51709;54.912;8.316;2022-11-12T21:57:04;35.88;;;20.98;;
65130;SDS011;51709;54.912;8.316;2022-11-12T22:02:44;49.05;;;28.35;;
65130;SDS011;51709;54.912;8.316;2022-11-12T22:08:23;34.55;;;20.83;;
65130;SDS011;51709;54.912;8.316;2022-11-12T22:14:03;29.45;;;18.73;;
65130;SDS011;51709;54.912;8.316;2022-11-12T22:19:42;30.95;;;17.83;;
65130;SDS011;51709;54.912;8.316;2022-11-12T22:25:22;32.45;;;18.05;;
65130;SDS011;51709;54.912;8.316;2022-11-12T22:31:02;36.78;;;19.58;;
65130;SDS011;51709;54.912;8.316;2022-11-12T22:36:43;33.97;;;19.52;;
65130;SDS011;51709;54.912;8.316;2022-11-12T22:42:22;35.90;;;19.90;;
65130;SDS011;51709;54.912;8.316;2022-11-12T22:48:02;33.25;;;18.92;;
65130;SDS011;51709;54.912;8.316;2022-11-12T22:53:42;37.50;;;18.95;;
65130;SDS011;51709;54.912;8.316;2022-11-12T22:59:21;35.17;;;19.17;;
65130;SDS011;51709;54.912;8.316;2022-11-12T23:05:01;31.63;;;20.15;;
65130;SDS011;51709;54.912;8.316;2022-11-12T23:10:41;37.53;;;21.25;;
65130;SDS011;51709;54.912;8.316;2022-11-12T23:16:25;34.47;;;20.08;;
65130;SDS011;51709;54.912;8.316;2022-11-12T23:22:07;38.33;;;20.67;;
65130;SDS011;51709;54.912;8.316;2022-11-12T23:27:47;35.13;;;21.63;;
65130;SDS011;51709;54.912;8.316;2022-11-12T23:33:26;37.05;;;21.27;;
65130;SDS011;51709;54.912;8.316;2022-11-12T23:39:05;33.33;;;18.80;;
65130;SDS011;51709;54.912;8.316;2022-11-12T23:44:44;35.00;;;19.73;;
65130;SDS011;51709;54.912;8.316;2022-11-12T23:50:24;35.45;;;19.60;;
65130;SDS011;51709;54.912;8.316;2022-11-12T23:56:04;35.13;;;19.40;;
